sensor_id;sensor_type;location;lat;lon;timestamp;P1;durP1;ratioP1;P2;durP2;ratioP2
52031;SDS011;38044;45.148;39.604;2024-01-15T00:02:20;10.98;;;6.85;;
52031;SDS011;38044;45.148;39.604;2024-01-15T00:04:46;10.13;;;6.57;;
52031;SDS011;38044;45.148;39.604;2024-01-15T00:07:12;12.13;;;6.63;;
52031;SDS011;38044;45.148;39.604;2024-01-15T00:09:37;10.93;;;6.25;;
52031;SDS011;38044;45.148;39.604;2024-01-15T00:12:05;12.02;;;6.78;;
52031;SDS011;38044;45.148;39.604;2024-01-15T00:14:31;9.02;;;6.32;;
52031;SDS011;38044;45.148;39.604;2024-01-15T00:16:57;10.70;;;7.15;;
52031;SDS011;38044;45.148;39.604;2024-01-15T00:19:23;9.88;;;6.45;;
52031;SDS011;38044;45.148;39.604;2024-01-15T00:21:49;11.00;;;6.70;;
52031;SDS011;38044;45.148;39.604;2024-01-15T00:24:15;10.73;;;6.65;;
52031;SDS011;38044;45.148;39.604;2024-01-15T00:26:41;9.80;;;6.43;;
52031;SDS011;38044;45.148;39.604;2024-01-15T00:29:07;10.32;;;6.80;;
52031;SDS011;38044;45.148;39.604;2024-01-15T00:31:34;9.13;;;6.32;;
52031;SDS011;38044;45.148;39.604;2024-01-15T00:34:00;9.70;;;6.30;;
52031;SDS011;38044;45.148;39.604;2024-01-15T00:36:26;11.52;;;7.03;;
52031;SDS011;38044;45.148;39.604;2024-01-15T00:38:52;10.32;;;6.78;;
52031;SDS011;38044;45.148;39.604;2024-01-15T00:41:18;9.20;;;6.20;;
52031;SDS011;38044;45.148;39.604;2024-01-15T00:43:45;12.38;;;7.20;;
52031;SDS011;38044;45.148;39.604;2024-01-15T00:46:11;10.57;;;6.80;;
52031;SDS011;38044;45.148;39.604;2024-01-15T00:48:37;12.65;;;7.13;;
52031;SDS011;38044;45.148;39.604;2024-01-15T00:51:06;10.77;;;6.65;;
52031;SDS011;38044;45.148;39.604;2024-01-15T00:53:32;9.90;;;6.80;;
52031;SDS011;38044;45.148;39.604;2024-01-15T00:55:58;11.98;;;7.35;;
52031;SDS011;38044;45.148;39.604;2024-01-15T00:58:24;13.18;;;6.80;;
52031;SDS011;38044;45.148;39.604;2024-01-15T01:00:50;13.45;;;8.18;;
52031;SDS011;38044;45.148;39.604;2024-01-15T01:03:16;12.23;;;7.78;;
52031;SDS011;38044;45.148;39.604;2024-01-15T01:05:42;9.60;;;6.32;;
52031;SDS011;38044;45.148;39.604;2024-01-15T01:08:09;10.30;;;6.55;;
52031;SDS011;38044;45.148;39.604;2024-01-15T01:10:35;11.38;;;7.07;;
52031;SDS011;38044;45.148;39.604;2024-01-15T01:13:00;12.35;;;6.95;;
52031;SDS011;38044;45.148;39.604;2024-01-15T01:15:26;10.05;;;6.90;;
52031;SDS011;38044;45.148;39.604;2024-01-15T01:17:52;11.20;;;6.72;;
52031;SDS011;38044;45.148;39.604;2024-01-15T01:20:18;10.00;;;7.13;;
52031;SDS011;38044;45.148;39.604;2024-01-15T01:22:44;10.65;;;6.53;;
52031;SDS011;38044;45.148;39.604;2024-01-15T01:25:10;10.75;;;6.20;;
52031;SDS011;38044;45.148;39.604;2024-01-15T01:27:35;11.48;;;7.10;;
52031;SDS011;38044;45.148;39.604;2024-01-15T01:30:01;10.75;;;6.45;;
52031;SDS011;38044;45.148;39.604;2024-01-15T01:32:28;10.57;;;6.57;;
52031;SDS011;38044;45.148;39.604;2024-01-15T01:34:54;9.27;;;6.65;;
52031;SDS011;38044;45.148;39.604;2024-01-15T01:37:20;11.02;;;6.45;;
52031;SDS011;38044;45.148;39.604;2024-01-15T01:39:46;9.02;;;6.68;;
52031;SDS011;38044;45.148;39.604;2024-01-15T01:42:12;9.45;;;6.15;;
52031;SDS011;38044;45.148;39.604;2024-01-15T01:44:38;10.73;;;6.22;;
52031;SDS011;38044;45.148;39.604;2024-01-15T01:47:04;8.95;;;5.82;;
52031;SDS011;38044;45.148;39.604;2024-01-15T01:49:30;8.90;;;5.82;;
52031;SDS011;38044;45.148;39.604;2024-01-15T01:51:57;10.43;;;5.90;;
52031;SDS011;38044;45.148;39.604;2024-01-15T01:54:26;10.50;;;6.13;;
52031;SDS011;38044;45.148;39.604;2024-01-15T01:56:54;10.57;;;6.05;;
52031;SDS011;38044;45.148;39.604;2024-01-15T01:59:22;9.40;;;6.55;;
52031;SDS011;38044;45.148;39.604;2024-01-15T02:01:49;10.88;;;5.47;;
52031;SDS011;38044;45.148;39.604;2024-01-15T02:04:16;9.13;;;5.45;;
52031;SDS011;38044;45.148;39.604;2024-01-15T02:06:42;10.82;;;6.15;;
52031;SDS011;38044;45.148;39.604;2024-01-15T02:09:08;8.85;;;6.00;;
52031;SDS011;38044;45.148;39.604;2024-01-15T02:11:35;8.02;;;6.00;;
52031;SDS011;38044;45.148;39.604;2024-01-15T02:14:01;10.77;;;6.55;;
52031;SDS011;38044;45.148;39.604;2024-01-15T02:16:28;7.75;;;5.88;;
52031;SDS011;38044;45.148;39.604;2024-01-15T02:18:54;9.32;;;5.47;;
52031;SDS011;38044;45.148;39.604;2024-01-15T02:21:20;10.10;;;6.18;;
52031;SDS011;38044;45.148;39.604;2024-01-15T02:23:45;9.68;;;5.63;;
52031;SDS011;38044;45.148;39.604;2024-01-15T02:26:11;9.00;;;5.85;;
52031;SDS011;38044;45.148;39.604;2024-01-15T02:28:38;9.48;;;5.40;;
52031;SDS011;38044;45.148;39.604;2024-01-15T02:31:06;9.60;;;5.90;;
52031;SDS011;38044;45.148;39.604;2024-01-15T02:33:32;11.27;;;5.93;;
52031;SDS011;38044;45.148;39.604;2024-01-15T02:35:58;14.25;;;5.60;;
52031;SDS011;38044;45.148;39.604;2024-01-15T02:38:24;12.50;;;6.68;;
52031;SDS011;38044;45.148;39.604;2024-01-15T02:40:49;12.65;;;5.82;;
52031;SDS011;38044;45.148;39.604;2024-01-15T02:43:16;14.20;;;6.28;;
52031;SDS011;38044;45.148;39.604;2024-01-15T02:45:44;8.13;;;5.65;;
52031;SDS011;38044;45.148;39.604;2024-01-15T02:48:11;9.13;;;5.00;;
52031;SDS011;38044;45.148;39.604;2024-01-15T02:50:37;6.95;;;4.88;;
52031;SDS011;38044;45.148;39.604;2024-01-15T02:53:03;8.63;;;5.55;;
52031;SDS011;38044;45.148;39.604;2024-01-15T02:55:29;6.82;;;4.70;;
52031;SDS011;38044;45.148;39.604;2024-01-15T02:57:54;5.75;;;4.03;;
52031;SDS011;38044;45.148;39.604;2024-01-15T03:00:20;5.88;;;4.20;;
52031;SDS011;38044;45.148;39.604;2024-01-15T03:02:47;6.28;;;3.83;;
52031;SDS011;38044;45.148;39.604;2024-01-15T03:05:15;7.43;;;4.45;;
52031;SDS011;38044;45.148;39.604;2024-01-15T03:07:41;9.27;;;4.13;;
52031;SDS011;38044;45.148;39.604;2024-01-15T03:10:07;6.95;;;4.25;;
52031;SDS011;38044;45.148;39.604;2024-01-15T03:12:33;8.77;;;4.28;;
52031;SDS011;38044;45.148;39.604;2024-01-15T03:14:59;7.75;;;4.38;;
52031;SDS011;38044;45.148;39.604;2024-01-15T03:17:27;5.07;;;2.58;;
52031;SDS011;38044;45.148;39.604;2024-01-15T03:19:52;4.35;;;2.78;;
52031;SDS011;38044;45.148;39.604;2024-01-15T03:22:18;5.68;;;3.08;;
52031;SDS011;38044;45.148;39.604;2024-01-15T03:24:45;4.78;;;2.70;;
52031;SDS011;38044;45.148;39.604;2024-01-15T03:27:11;5.15;;;3.08;;
52031;SDS011;38044;45.148;39.604;2024-01-15T03:29:37;4.40;;;2.78;;
52031;SDS011;38044;45.148;39.604;2024-01-15T03:32:03;4.80;;;3.13;;
52031;SDS011;38044;45.148;39.604;2024-01-15T03:34:30;4.90;;;2.88;;
52031;SDS011;38044;45.148;39.604;2024-01-15T03:36:56;5.80;;;3.40;;
52031;SDS011;38044;45.148;39.604;2024-01-15T03:39:22;4.65;;;2.90;;
52031;SDS011;38044;45.148;39.604;2024-01-15T03:41:48;5.03;;;3.00;;
52031;SDS011;38044;45.148;39.604;2024-01-15T03:44:14;4.97;;;3.60;;
52031;SDS011;38044;45.148;39.604;2024-01-15T03:46:40;5.18;;;2.83;;
52031;SDS011;38044;45.148;39.604;2024-01-15T03:49:06;4.80;;;2.95;;
52031;SDS011;38044;45.148;39.604;2024-01-15T03:51:32;4.13;;;3.10;;
52031;SDS011;38044;45.148;39.604;2024-01-15T03:53:58;4.90;;;3.75;;
52031;SDS011;38044;45.148;39.604;2024-01-15T03:56:24;5.70;;;3.55;;
52031;SDS011;38044;45.148;39.604;2024-01-15T03:58:49;5.82;;;3.55;;
52031;SDS011;38044;45.148;39.604;2024-01-15T04:01:15;6.53;;;3.60;;
52031;SDS011;38044;45.148;39.604;2024-01-15T04:03:41;6.88;;;3.80;;
52031;SDS011;38044;45.148;39.604;2024-01-15T04:06:07;5.90;;;4.25;;
52031;SDS011;38044;45.148;39.604;2024-01-15T04:08:33;6.47;;;3.90;;
52031;SDS011;38044;45.148;39.604;2024-01-15T04:10:59;6.65;;;4.28;;
52031;SDS011;38044;45.148;39.604;2024-01-15T04:13:24;4.97;;;3.50;;
52031;SDS011;38044;45.148;39.604;2024-01-15T04:15:51;6.03;;;3.80;;
52031;SDS011;38044;45.148;39.604;2024-01-15T04:18:16;6.30;;;4.35;;
52031;SDS011;38044;45.148;39.604;2024-01-15T04:20:45;5.28;;;3.67;;
52031;SDS011;38044;45.148;39.604;2024-01-15T04:23:11;7.32;;;3.95;;
52031;SDS011;38044;45.148;39.604;2024-01-15T04:25:36;5.65;;;3.47;;
52031;SDS011;38044;45.148;39.604;2024-01-15T04:28:02;9.23;;;3.35;;
52031;SDS011;38044;45.148;39.604;2024-01-15T04:30:28;7.50;;;3.50;;
52031;SDS011;38044;45.148;39.604;2024-01-15T04:32:54;7.50;;;3.92;;
52031;SDS011;38044;45.148;39.604;2024-01-15T04:35:20;7.13;;;3.85;;
52031;SDS011;38044;45.148;39.604;2024-01-15T04:37:46;6.43;;;3.15;;
52031;SDS011;38044;45.148;39.604;2024-01-15T04:40:11;6.97;;;2.28;;
52031;SDS011;38044;45.148;39.604;2024-01-15T04:42:37;3.25;;;1.63;;
52031;SDS011;38044;45.148;39.604;2024-01-15T04:45:03;3.75;;;1.63;;
52031;SDS011;38044;45.148;39.604;2024-01-15T04:47:29;2.88;;;1.50;;
52031;SDS011;38044;45.148;39.604;2024-01-15T04:49:55;3.63;;;1.80;;
52031;SDS011;38044;45.148;39.604;2024-01-15T04:52:21;2.47;;;1.40;;
52031;SDS011;38044;45.148;39.604;2024-01-15T04:54:47;3.20;;;1.30;;
52031;SDS011;38044;45.148;39.604;2024-01-15T04:57:13;4.07;;;1.35;;
52031;SDS011;38044;45.148;39.604;2024-01-15T04:59:40;3.10;;;1.50;;
52031;SDS011;38044;45.148;39.604;2024-01-15T05:02:06;1.80;;;1.30;;
52031;SDS011;38044;45.148;39.604;2024-01-15T05:04:32;6.32;;;1.50;;
52031;SDS011;38044;45.148;39.604;2024-01-15T05:06:58;2.55;;;1.50;;
52031;SDS011;38044;45.148;39.604;2024-01-15T05:09:24;3.75;;;1.55;;
52031;SDS011;38044;45.148;39.604;2024-01-15T05:11:49;2.92;;;1.40;;
52031;SDS011;38044;45.148;39.604;2024-01-15T05:14:15;5.03;;;1.80;;
52031;SDS011;38044;45.148;39.604;2024-01-15T05:16:48;3.83;;;1.77;;
52031;SDS011;38044;45.148;39.604;2024-01-15T05:19:14;5.57;;;2.35;;
52031;SDS011;38044;45.148;39.604;2024-01-15T05:21:40;1.83;;;1.30;;
52031;SDS011;38044;45.148;39.604;2024-01-15T05:24:07;4.32;;;1.60;;
52031;SDS011;38044;45.148;39.604;2024-01-15T05:26:33;3.47;;;1.42;;
52031;SDS011;38044;45.148;39.604;2024-01-15T05:28:59;2.50;;;1.30;;
52031;SDS011;38044;45.148;39.604;2024-01-15T05:31:25;3.05;;;1.40;;
52031;SDS011;38044;45.148;39.604;2024-01-15T05:33:51;2.40;;;1.33;;
52031;SDS011;38044;45.148;39.604;2024-01-15T05:36:17;7.00;;;1.40;;
52031;SDS011;38044;45.148;39.604;2024-01-15T05:38:43;4.25;;;1.35;;
52031;SDS011;38044;45.148;39.604;2024-01-15T05:41:08;3.35;;;1.45;;
52031;SDS011;38044;45.148;39.604;2024-01-15T05:43:35;1.73;;;1.20;;
52031;SDS011;38044;45.148;39.604;2024-01-15T05:46:01;3.10;;;1.13;;
52031;SDS011;38044;45.148;39.604;2024-01-15T05:48:26;2.63;;;1.25;;
52031;SDS011;38044;45.148;39.604;2024-01-15T05:50:52;2.03;;;1.10;;
52031;SDS011;38044;45.148;39.604;2024-01-15T05:53:18;2.70;;;1.00;;
52031;SDS011;38044;45.148;39.604;2024-01-15T05:55:44;2.33;;;1.08;;
52031;SDS011;38044;45.148;39.604;2024-01-15T05:58:10;3.50;;;1.40;;
52031;SDS011;38044;45.148;39.604;2024-01-15T06:00:35;1.83;;;0.90;;
52031;SDS011;38044;45.148;39.604;2024-01-15T06:03:03;3.40;;;1.20;;
52031;SDS011;38044;45.148;39.604;2024-01-15T06:05:29;2.70;;;1.38;;
52031;SDS011;38044;45.148;39.604;2024-01-15T06:07:55;3.28;;;1.00;;
52031;SDS011;38044;45.148;39.604;2024-01-15T06:10:21;3.28;;;1.00;;
52031;SDS011;38044;45.148;39.604;2024-01-15T06:12:47;1.45;;;1.00;;
52031;SDS011;38044;45.148;39.604;2024-01-15T06:15:12;2.33;;;1.17;;
52031;SDS011;38044;45.148;39.604;2024-01-15T06:17:38;3.47;;;1.08;;
52031;SDS011;38044;45.148;39.604;2024-01-15T06:20:04;1.45;;;0.93;;
52031;SDS011;38044;45.148;39.604;2024-01-15T06:22:31;2.30;;;1.15;;
52031;SDS011;38044;45.148;39.604;2024-01-15T06:24:57;1.73;;;0.95;;
52031;SDS011;38044;45.148;39.604;2024-01-15T06:27:23;2.15;;;1.23;;
52031;SDS011;38044;45.148;39.604;2024-01-15T06:29:49;1.50;;;1.00;;
52031;SDS011;38044;45.148;39.604;2024-01-15T06:32:14;3.10;;;1.15;;
52031;SDS011;38044;45.148;39.604;2024-01-15T06:34:40;4.18;;;1.33;;
52031;SDS011;38044;45.148;39.604;2024-01-15T06:37:06;1.98;;;1.02;;
52031;SDS011;38044;45.148;39.604;2024-01-15T06:39:32;2.80;;;1.20;;
52031;SDS011;38044;45.148;39.604;2024-01-15T06:41:58;3.28;;;1.42;;
52031;SDS011;38044;45.148;39.604;2024-01-15T06:44:23;2.75;;;1.10;;
52031;SDS011;38044;45.148;39.604;2024-01-15T06:46:49;3.88;;;1.20;;
52031;SDS011;38044;45.148;39.604;2024-01-15T06:49:16;2.92;;;1.23;;
52031;SDS011;38044;45.148;39.604;2024-01-15T06:51:42;1.98;;;1.30;;
52031;SDS011;38044;45.148;39.604;2024-01-15T06:54:08;1.88;;;1.35;;
52031;SDS011;38044;45.148;39.604;2024-01-15T06:56:35;2.58;;;1.00;;
52031;SDS011;38044;45.148;39.604;2024-01-15T06:59:01;2.70;;;1.23;;
52031;SDS011;38044;45.148;39.604;2024-01-15T07:01:27;2.30;;;1.23;;
52031;SDS011;38044;45.148;39.604;2024-01-15T07:03:54;2.15;;;1.00;;
52031;SDS011;38044;45.148;39.604;2024-01-15T07:06:20;1.67;;;0.90;;
52031;SDS011;38044;45.148;39.604;2024-01-15T07:08:47;2.22;;;1.20;;
52031;SDS011;38044;45.148;39.604;2024-01-15T07:11:12;3.05;;;1.30;;
52031;SDS011;38044;45.148;39.604;2024-01-15T07:13:38;5.38;;;1.45;;
52031;SDS011;38044;45.148;39.604;2024-01-15T07:16:04;2.22;;;1.30;;
52031;SDS011;38044;45.148;39.604;2024-01-15T07:18:30;2.75;;;1.23;;
52031;SDS011;38044;45.148;39.604;2024-01-15T07:20:56;6.68;;;1.90;;
52031;SDS011;38044;45.148;39.604;2024-01-15T07:23:22;2.90;;;1.98;;
52031;SDS011;38044;45.148;39.604;2024-01-15T07:25:48;2.92;;;1.35;;
52031;SDS011;38044;45.148;39.604;2024-01-15T07:28:13;2.63;;;1.30;;
52031;SDS011;38044;45.148;39.604;2024-01-15T07:30:39;3.05;;;1.30;;
52031;SDS011;38044;45.148;39.604;2024-01-15T07:33:05;6.97;;;2.75;;
52031;SDS011;38044;45.148;39.604;2024-01-15T07:35:31;3.22;;;1.50;;
52031;SDS011;38044;45.148;39.604;2024-01-15T07:37:57;3.80;;;1.60;;
52031;SDS011;38044;45.148;39.604;2024-01-15T07:40:23;4.80;;;1.50;;
52031;SDS011;38044;45.148;39.604;2024-01-15T07:42:50;4.03;;;1.60;;
52031;SDS011;38044;45.148;39.604;2024-01-15T07:45:16;4.40;;;1.50;;
52031;SDS011;38044;45.148;39.604;2024-01-15T07:47:42;4.63;;;2.28;;
52031;SDS011;38044;45.148;39.604;2024-01-15T07:50:09;2.50;;;1.60;;
52031;SDS011;38044;45.148;39.604;2024-01-15T07:52:35;5.40;;;2.20;;
52031;SDS011;38044;45.148;39.604;2024-01-15T07:55:01;3.92;;;2.63;;
52031;SDS011;38044;45.148;39.604;2024-01-15T07:57:30;14.43;;;5.55;;
52031;SDS011;38044;45.148;39.604;2024-01-15T07:59:56;13.57;;;5.32;;
52031;SDS011;38044;45.148;39.604;2024-01-15T08:02:22;12.93;;;6.18;;
52031;SDS011;38044;45.148;39.604;2024-01-15T08:04:48;11.15;;;4.85;;
52031;SDS011;38044;45.148;39.604;2024-01-15T08:07:14;10.35;;;4.60;;
52031;SDS011;38044;45.148;39.604;2024-01-15T08:09:40;12.68;;;4.88;;
52031;SDS011;38044;45.148;39.604;2024-01-15T08:12:06;13.55;;;5.15;;
52031;SDS011;38044;45.148;39.604;2024-01-15T08:14:32;20.20;;;6.65;;
52031;SDS011;38044;45.148;39.604;2024-01-15T08:16:58;16.13;;;6.85;;
52031;SDS011;38044;45.148;39.604;2024-01-15T08:19:24;8.45;;;4.82;;
52031;SDS011;38044;45.148;39.604;2024-01-15T08:21:50;5.85;;;3.72;;
52031;SDS011;38044;45.148;39.604;2024-01-15T08:24:15;5.28;;;3.65;;
52031;SDS011;38044;45.148;39.604;2024-01-15T08:26:42;5.50;;;3.33;;
52031;SDS011;38044;45.148;39.604;2024-01-15T08:29:08;6.13;;;2.95;;
52031;SDS011;38044;45.148;39.604;2024-01-15T08:31:34;5.75;;;3.13;;
52031;SDS011;38044;45.148;39.604;2024-01-15T08:33:59;6.18;;;3.03;;
52031;SDS011;38044;45.148;39.604;2024-01-15T08:36:27;5.13;;;2.80;;
52031;SDS011;38044;45.148;39.604;2024-01-15T08:38:54;5.70;;;3.33;;
52031;SDS011;38044;45.148;39.604;2024-01-15T08:41:20;5.00;;;3.05;;
52031;SDS011;38044;45.148;39.604;2024-01-15T08:43:46;6.50;;;3.13;;
52031;SDS011;38044;45.148;39.604;2024-01-15T08:46:12;4.03;;;2.28;;
52031;SDS011;38044;45.148;39.604;2024-01-15T08:48:38;5.60;;;2.60;;
52031;SDS011;38044;45.148;39.604;2024-01-15T08:51:05;5.13;;;2.90;;
52031;SDS011;38044;45.148;39.604;2024-01-15T08:53:31;4.57;;;2.90;;
52031;SDS011;38044;45.148;39.604;2024-01-15T08:55:58;5.97;;;3.13;;
52031;SDS011;38044;45.148;39.604;2024-01-15T08:58:24;5.63;;;3.20;;
52031;SDS011;38044;45.148;39.604;2024-01-15T09:00:50;3.67;;;2.60;;
52031;SDS011;38044;45.148;39.604;2024-01-15T09:03:16;4.75;;;2.53;;
52031;SDS011;38044;45.148;39.604;2024-01-15T09:05:42;4.68;;;2.85;;
52031;SDS011;38044;45.148;39.604;2024-01-15T09:08:08;4.05;;;2.70;;
52031;SDS011;38044;45.148;39.604;2024-01-15T09:10:34;14.77;;;3.97;;
52031;SDS011;38044;45.148;39.604;2024-01-15T09:13:00;20.38;;;5.93;;
52031;SDS011;38044;45.148;39.604;2024-01-15T09:15:26;24.15;;;6.93;;
52031;SDS011;38044;45.148;39.604;2024-01-15T09:17:52;21.13;;;5.95;;
52031;SDS011;38044;45.148;39.604;2024-01-15T09:20:18;15.90;;;5.47;;
52031;SDS011;38044;45.148;39.604;2024-01-15T09:22:44;7.80;;;3.85;;
52031;SDS011;38044;45.148;39.604;2024-01-15T09:25:10;7.45;;;4.00;;
52031;SDS011;38044;45.148;39.604;2024-01-15T09:27:36;6.97;;;4.10;;
52031;SDS011;38044;45.148;39.604;2024-01-15T09:30:03;9.75;;;4.25;;
52031;SDS011;38044;45.148;39.604;2024-01-15T09:32:30;7.57;;;3.78;;
52031;SDS011;38044;45.148;39.604;2024-01-15T09:34:56;7.97;;;3.67;;
52031;SDS011;38044;45.148;39.604;2024-01-15T09:37:22;6.40;;;4.20;;
52031;SDS011;38044;45.148;39.604;2024-01-15T09:39:48;6.68;;;4.57;;
52031;SDS011;38044;45.148;39.604;2024-01-15T09:42:15;20.88;;;7.80;;
52031;SDS011;38044;45.148;39.604;2024-01-15T09:44:41;10.23;;;5.32;;
52031;SDS011;38044;45.148;39.604;2024-01-15T09:47:08;14.07;;;6.57;;
52031;SDS011;38044;45.148;39.604;2024-01-15T09:49:35;9.02;;;4.78;;
52031;SDS011;38044;45.148;39.604;2024-01-15T09:52:01;7.50;;;4.50;;
52031;SDS011;38044;45.148;39.604;2024-01-15T09:54:28;9.25;;;3.78;;
52031;SDS011;38044;45.148;39.604;2024-01-15T09:56:54;4.82;;;2.78;;
52031;SDS011;38044;45.148;39.604;2024-01-15T09:59:20;5.10;;;2.53;;
52031;SDS011;38044;45.148;39.604;2024-01-15T10:01:49;3.17;;;2.40;;
52031;SDS011;38044;45.148;39.604;2024-01-15T10:04:16;8.43;;;3.30;;
52031;SDS011;38044;45.148;39.604;2024-01-15T10:06:43;4.97;;;2.55;;
52031;SDS011;38044;45.148;39.604;2024-01-15T10:09:13;3.38;;;2.40;;
52031;SDS011;38044;45.148;39.604;2024-01-15T10:11:42;6.22;;;2.60;;
52031;SDS011;38044;45.148;39.604;2024-01-15T10:14:08;5.55;;;3.10;;
52031;SDS011;38044;45.148;39.604;2024-01-15T10:16:38;4.38;;;2.53;;
52031;SDS011;38044;45.148;39.604;2024-01-15T10:19:04;6.15;;;2.42;;
52031;SDS011;38044;45.148;39.604;2024-01-15T10:21:33;5.20;;;2.33;;
52031;SDS011;38044;45.148;39.604;2024-01-15T10:24:03;6.10;;;2.30;;
52031;SDS011;38044;45.148;39.604;2024-01-15T10:26:30;4.57;;;2.53;;
52031;SDS011;38044;45.148;39.604;2024-01-15T10:28:58;6.03;;;2.50;;
52031;SDS011;38044;45.148;39.604;2024-01-15T10:31:25;4.10;;;2.00;;
52031;SDS011;38044;45.148;39.604;2024-01-15T10:33:52;5.18;;;2.15;;
52031;SDS011;38044;45.148;39.604;2024-01-15T10:36:18;5.05;;;2.40;;
52031;SDS011;38044;45.148;39.604;2024-01-15T10:38:44;3.05;;;2.15;;
52031;SDS011;38044;45.148;39.604;2024-01-15T10:41:11;4.18;;;1.95;;
52031;SDS011;38044;45.148;39.604;2024-01-15T10:43:37;3.35;;;2.03;;
52031;SDS011;38044;45.148;39.604;2024-01-15T10:46:06;6.00;;;2.00;;
52031;SDS011;38044;45.148;39.604;2024-01-15T10:48:32;3.58;;;2.40;;
52031;SDS011;38044;45.148;39.604;2024-01-15T10:51:00;3.88;;;2.28;;
52031;SDS011;38044;45.148;39.604;2024-01-15T10:53:35;4.00;;;2.47;;
52031;SDS011;38044;45.148;39.604;2024-01-15T10:56:05;3.53;;;2.08;;
52031;SDS011;38044;45.148;39.604;2024-01-15T10:58:32;2.75;;;2.10;;
52031;SDS011;38044;45.148;39.604;2024-01-15T11:01:00;4.30;;;3.10;;
52031;SDS011;38044;45.148;39.604;2024-01-15T11:03:27;5.95;;;3.20;;
52031;SDS011;38044;45.148;39.604;2024-01-15T11:05:53;4.03;;;3.00;;
52031;SDS011;38044;45.148;39.604;2024-01-15T11:08:19;9.98;;;3.65;;
52031;SDS011;38044;45.148;39.604;2024-01-15T11:10:50;12.15;;;4.88;;
52031;SDS011;38044;45.148;39.604;2024-01-15T11:16:09;17.65;;;5.95;;
52031;SDS011;38044;45.148;39.604;2024-01-15T11:18:39;16.40;;;5.65;;
52031;SDS011;38044;45.148;39.604;2024-01-15T11:24:15;12.82;;;3.67;;
52031;SDS011;38044;45.148;39.604;2024-01-15T11:28:59;12.18;;;3.88;;
52031;SDS011;38044;45.148;39.604;2024-01-15T11:34:05;14.25;;;5.15;;
52031;SDS011;38044;45.148;39.604;2024-01-15T11:41:57;21.73;;;6.32;;
52031;SDS011;38044;45.148;39.604;2024-01-15T11:44:24;21.80;;;5.80;;
52031;SDS011;38044;45.148;39.604;2024-01-15T11:52:36;17.80;;;5.43;;
52031;SDS011;38044;45.148;39.604;2024-01-15T11:55:10;7.57;;;3.30;;
52031;SDS011;38044;45.148;39.604;2024-01-15T11:57:42;10.18;;;3.58;;
52031;SDS011;38044;45.148;39.604;2024-01-15T12:00:11;12.50;;;3.80;;
52031;SDS011;38044;45.148;39.604;2024-01-15T12:02:45;13.73;;;4.32;;
52031;SDS011;38044;45.148;39.604;2024-01-15T12:05:12;15.65;;;5.30;;
52031;SDS011;38044;45.148;39.604;2024-01-15T12:07:40;16.38;;;4.80;;
52031;SDS011;38044;45.148;39.604;2024-01-15T12:10:16;13.35;;;4.03;;
52031;SDS011;38044;45.148;39.604;2024-01-15T12:15:31;11.85;;;4.32;;
52031;SDS011;38044;45.148;39.604;2024-01-15T12:17:59;18.75;;;5.10;;
52031;SDS011;38044;45.148;39.604;2024-01-15T12:20:27;8.25;;;3.28;;
52031;SDS011;38044;45.148;39.604;2024-01-15T12:22:54;10.20;;;4.63;;
52031;SDS011;38044;45.148;39.604;2024-01-15T12:25:21;41.70;;;11.27;;
52031;SDS011;38044;45.148;39.604;2024-01-15T12:27:47;20.20;;;6.88;;
52031;SDS011;38044;45.148;39.604;2024-01-15T12:30:13;16.42;;;5.93;;
52031;SDS011;38044;45.148;39.604;2024-01-15T12:32:40;24.00;;;7.35;;
52031;SDS011;38044;45.148;39.604;2024-01-15T12:35:07;22.13;;;8.00;;
52031;SDS011;38044;45.148;39.604;2024-01-15T12:37:41;14.30;;;4.55;;
52031;SDS011;38044;45.148;39.604;2024-01-15T12:40:19;11.02;;;3.97;;
52031;SDS011;38044;45.148;39.604;2024-01-15T12:42:51;18.02;;;5.93;;
52031;SDS011;38044;45.148;39.604;2024-01-15T12:45:17;13.65;;;5.28;;
52031;SDS011;38044;45.148;39.604;2024-01-15T12:47:43;6.75;;;3.17;;
52031;SDS011;38044;45.148;39.604;2024-01-15T12:50:09;11.00;;;3.60;;
52031;SDS011;38044;45.148;39.604;2024-01-15T12:52:37;18.17;;;5.05;;
52031;SDS011;38044;45.148;39.604;2024-01-15T12:55:05;8.32;;;3.50;;
52031;SDS011;38044;45.148;39.604;2024-01-15T12:57:32;4.63;;;2.72;;
52031;SDS011;38044;45.148;39.604;2024-01-15T13:00:00;5.38;;;2.50;;
52031;SDS011;38044;45.148;39.604;2024-01-15T13:02:26;4.80;;;2.97;;
52031;SDS011;38044;45.148;39.604;2024-01-15T13:04:52;12.57;;;4.07;;
52031;SDS011;38044;45.148;39.604;2024-01-15T13:07:19;11.40;;;4.68;;
52031;SDS011;38044;45.148;39.604;2024-01-15T13:09:45;14.07;;;5.00;;
52031;SDS011;38044;45.148;39.604;2024-01-15T13:12:10;17.88;;;5.28;;
52031;SDS011;38044;45.148;39.604;2024-01-15T13:14:37;17.63;;;5.47;;
52031;SDS011;38044;45.148;39.604;2024-01-15T13:17:03;17.15;;;5.63;;
52031;SDS011;38044;45.148;39.604;2024-01-15T13:19:29;30.55;;;7.88;;
52031;SDS011;38044;45.148;39.604;2024-01-15T13:21:55;23.80;;;6.85;;
52031;SDS011;38044;45.148;39.604;2024-01-15T13:24:25;20.75;;;6.13;;
52031;SDS011;38044;45.148;39.604;2024-01-15T13:26:52;19.50;;;6.93;;
52031;SDS011;38044;45.148;39.604;2024-01-15T13:29:23;30.60;;;7.82;;
52031;SDS011;38044;45.148;39.604;2024-01-15T13:31:51;8.90;;;2.97;;
52031;SDS011;38044;45.148;39.604;2024-01-15T13:34:17;5.57;;;2.45;;
52031;SDS011;38044;45.148;39.604;2024-01-15T13:36:44;4.90;;;2.30;;
52031;SDS011;38044;45.148;39.604;2024-01-15T13:39:16;4.60;;;2.63;;
52031;SDS011;38044;45.148;39.604;2024-01-15T13:41:48;6.13;;;2.13;;
52031;SDS011;38044;45.148;39.604;2024-01-15T13:44:14;10.70;;;4.03;;
52031;SDS011;38044;45.148;39.604;2024-01-15T13:46:40;12.05;;;3.55;;
52031;SDS011;38044;45.148;39.604;2024-01-15T13:49:07;41.78;;;11.52;;
52031;SDS011;38044;45.148;39.604;2024-01-15T13:51:36;25.30;;;7.28;;
52031;SDS011;38044;45.148;39.604;2024-01-15T13:54:08;12.63;;;3.47;;
52031;SDS011;38044;45.148;39.604;2024-01-15T13:56:36;22.52;;;5.45;;
52031;SDS011;38044;45.148;39.604;2024-01-15T13:59:06;24.73;;;6.55;;
52031;SDS011;38044;45.148;39.604;2024-01-15T14:01:32;13.40;;;3.88;;
52031;SDS011;38044;45.148;39.604;2024-01-15T14:04:00;9.18;;;2.20;;
52031;SDS011;38044;45.148;39.604;2024-01-15T14:06:27;6.03;;;1.85;;
52031;SDS011;38044;45.148;39.604;2024-01-15T14:08:56;4.68;;;2.08;;
52031;SDS011;38044;45.148;39.604;2024-01-15T14:11:27;7.70;;;2.50;;
52031;SDS011;38044;45.148;39.604;2024-01-15T14:13:56;5.03;;;2.03;;
52031;SDS011;38044;45.148;39.604;2024-01-15T14:16:28;6.28;;;1.85;;
52031;SDS011;38044;45.148;39.604;2024-01-15T14:19:01;7.15;;;2.22;;
52031;SDS011;38044;45.148;39.604;2024-01-15T14:21:27;9.10;;;3.08;;
52031;SDS011;38044;45.148;39.604;2024-01-15T14:23:53;19.95;;;5.47;;
52031;SDS011;38044;45.148;39.604;2024-01-15T14:26:19;8.82;;;2.65;;
52031;SDS011;38044;45.148;39.604;2024-01-15T14:28:45;13.95;;;3.55;;
52031;SDS011;38044;45.148;39.604;2024-01-15T14:31:12;6.28;;;2.33;;
52031;SDS011;38044;45.148;39.604;2024-01-15T14:33:38;13.15;;;3.63;;
52031;SDS011;38044;45.148;39.604;2024-01-15T14:36:04;6.25;;;2.25;;
52031;SDS011;38044;45.148;39.604;2024-01-15T14:38:30;7.13;;;2.63;;
52031;SDS011;38044;45.148;39.604;2024-01-15T14:40:56;9.48;;;3.05;;
52031;SDS011;38044;45.148;39.604;2024-01-15T14:43:22;11.15;;;3.05;;
52031;SDS011;38044;45.148;39.604;2024-01-15T14:45:48;7.47;;;2.70;;
52031;SDS011;38044;45.148;39.604;2024-01-15T14:48:14;4.63;;;2.33;;
52031;SDS011;38044;45.148;39.604;2024-01-15T14:50:39;17.52;;;4.97;;
52031;SDS011;38044;45.148;39.604;2024-01-15T14:53:05;12.02;;;3.65;;